Sankoumaru 31 — JD2200 — position and weather

sailwx.info

Track history (hours):
 
Tides and Currents Weather Stations Pressure Air Temp Water Temp Dewpoint Dewpoint Depression Visibility Wind Speed Wind Dir Waves Ship Positions

Sankoumaru 31

Last reported at 2014-Jul-22 23:33 UTC. Time now 2014-Jul-22 23:40 UTC.
Position N 35°37' E 140°05'.

Length 75 m; draft 4.2 m.

Type: Cargo ship. MMSI: 431501842.

Date/timePositionNaut miles runAvg speedWind from/ knotsBaromVisibWave heightAir tempDewpointWater temp
2014-Jul-22 23:33N 35°37' E 140°05'1 0.0
2014-Jul-22 03:33N 35°36' E 140°05'2 2.2
2014-Jul-22 02:26N 35°35' E 140°03'0 0.0
2014-Jul-22 01:32N 35°35' E 140°03'8 7.9
2014-Jul-22 00:33N 35°41' E 139°57'0 0.0
2014-Jul-21 23:33N 35°41' E 139°57'0 0.0
2014-Jul-21 22:33N 35°41' E 139°57'0 0.0
2014-Jul-21 21:33N 35°41' E 139°57'0 0.0
2014-Jul-21 20:33N 35°41' E 139°57'0 0.0
2014-Jul-21 20:18N 35°41' E 139°57'0 0.0
2014-Jul-21 19:33N 35°41' E 139°57'0 0.0
2014-Jul-21 18:33N 35°41' E 139°57'0 0.0
2014-Jul-21 17:33N 35°41' E 139°57'0 0.0
2014-Jul-21 16:33N 35°41' E 139°57'0 0.0
2014-Jul-21 15:33N 35°41' E 139°57'0 0.0
2014-Jul-21 14:33N 35°41' E 139°57'0 0.0
2014-Jul-21 13:33N 35°41' E 139°57'0 0.0
2014-Jul-21 12:33N 35°41' E 139°57'0 0.0
2014-Jul-21 11:33N 35°41' E 139°57'0 0.0
2014-Jul-21 10:33N 35°41' E 139°57'0 0.0
2014-Jul-21 09:33N 35°41' E 139°57'0 0.0
2014-Jul-21 08:33N 35°41' E 139°57'8 8.5
2014-Jul-21 07:33N 35°33' E 139°54'1111.4
2014-Jul-21 06:33N 35°24' E 139°46'1010.2
2014-Jul-21 05:33N 35°13' E 139°47'1211.6
2014-Jul-21 04:33N 35°02' E 139°44'17 7.4
2014-Jul-21 02:17N 34°57' E 140°03'912.2
2014-Jul-21 01:33N 35°02' E 140°12'  
2014-Jul-12 15:16N 36°57' E 141°05'811.5
2014-Jul-12 14:32N 36°49' E 141°04'2211.2
2014-Jul-12 12:33N 36°27' E 141°01'1111.5
2014-Jul-12 11:33N 36°16' E 140°59'1111.4
2014-Jul-12 10:33N 36°04' E 140°58'1211.6
2014-Jul-12 09:33N 35°53' E 140°56'1211.9
2014-Jul-12 08:34N 35°41' E 140°55'1111.2
2014-Jul-12 07:33N 35°32' E 140°46'1111.4
2014-Jul-12 06:33N 35°23' E 140°38'2611.4
2014-Jul-12 04:18N 35°04' E 140°17'  
Track history (hours):
 
Tides and Currents Weather Stations Pressure Air Temp Water Temp Dewpoint Dewpoint Depression Visibility Wind Speed Wind Dir Waves Ship Positions

Sankoumaru 31

Last reported at 2014-Jul-22 23:33 UTC. Time now 2014-Jul-22 23:40 UTC.
Position N 35°37' E 140°05'.

Length 75 m; draft 4.2 m.

Type: Cargo ship. MMSI: 431501842.

Date/timePositionNaut miles runAvg speedWind from/ knotsBaromVisibWave heightAir tempDewpointWater temp
2014-Jul-22 23:33N 35°37' E 140°05'1 0.0
2014-Jul-22 03:33N 35°36' E 140°05'2 2.2
2014-Jul-22 02:26N 35°35' E 140°03'0 0.0
2014-Jul-22 01:32N 35°35' E 140°03'8 7.9
2014-Jul-22 00:33N 35°41' E 139°57'0 0.0
2014-Jul-21 23:33N 35°41' E 139°57'0 0.0
2014-Jul-21 22:33N 35°41' E 139°57'0 0.0
2014-Jul-21 21:33N 35°41' E 139°57'0 0.0
2014-Jul-21 20:33N 35°41' E 139°57'0 0.0
2014-Jul-21 20:18N 35°41' E 139°57'0 0.0
2014-Jul-21 19:33N 35°41' E 139°57'0 0.0
2014-Jul-21 18:33N 35°41' E 139°57'0 0.0
2014-Jul-21 17:33N 35°41' E 139°57'0 0.0
2014-Jul-21 16:33N 35°41' E 139°57'0 0.0
2014-Jul-21 15:33N 35°41' E 139°57'0 0.0
2014-Jul-21 14:33N 35°41' E 139°57'0 0.0
2014-Jul-21 13:33N 35°41' E 139°57'0 0.0
2014-Jul-21 12:33N 35°41' E 139°57'0 0.0
2014-Jul-21 11:33N 35°41' E 139°57'0 0.0
2014-Jul-21 10:33N 35°41' E 139°57'0 0.0
2014-Jul-21 09:33N 35°41' E 139°57'0 0.0
2014-Jul-21 08:33N 35°41' E 139°57'8 8.5
2014-Jul-21 07:33N 35°33' E 139°54'1111.4
2014-Jul-21 06:33N 35°24' E 139°46'1010.2
2014-Jul-21 05:33N 35°13' E 139°47'1211.6
2014-Jul-21 04:33N 35°02' E 139°44'17 7.4
2014-Jul-21 02:17N 34°57' E 140°03'912.2
2014-Jul-21 01:33N 35°02' E 140°12'  
2014-Jul-12 15:16N 36°57' E 141°05'811.5
2014-Jul-12 14:32N 36°49' E 141°04'2211.2
2014-Jul-12 12:33N 36°27' E 141°01'1111.5
2014-Jul-12 11:33N 36°16' E 140°59'1111.4
2014-Jul-12 10:33N 36°04' E 140°58'1211.6
2014-Jul-12 09:33N 35°53' E 140°56'1211.9
2014-Jul-12 08:34N 35°41' E 140°55'1111.2
2014-Jul-12 07:33N 35°32' E 140°46'1111.4
2014-Jul-12 06:33N 35°23' E 140°38'2611.4
2014-Jul-12 04:18N 35°04' E 140°17'  

Dump ship's entire track history